sensor_id;sensor_type;location;lat;lon;timestamp;temperature;humidity
69324;DHT22;56470;47.350;8.718;2023-09-19T00:00:22;18.51;75.01
69324;DHT22;56470;47.350;8.718;2023-09-19T00:02:57;18.50;75.29
69324;DHT22;56470;47.350;8.718;2023-09-19T00:05:23;18.53;75.13
69324;DHT22;56470;47.350;8.718;2023-09-19T00:07:50;18.54;75.10
69324;DHT22;56470;47.350;8.718;2023-09-19T00:10:16;18.50;75.21
69324;DHT22;56470;47.350;8.718;2023-09-19T00:12:45;18.56;75.22
69324;DHT22;56470;47.350;8.718;2023-09-19T00:15:10;18.61;75.17
69324;DHT22;56470;47.350;8.718;2023-09-19T00:17:36;18.64;75.17
69324;DHT22;56470;47.350;8.718;2023-09-19T00:20:03;18.69;75.26
69324;DHT22;56470;47.350;8.718;2023-09-19T00:22:32;18.65;74.99
69324;DHT22;56470;47.350;8.718;2023-09-19T00:24:57;18.67;75.05
69324;DHT22;56470;47.350;8.718;2023-09-19T00:27:22;18.78;74.98
69324;DHT22;56470;47.350;8.718;2023-09-19T00:29:48;18.88;74.92
69324;DHT22;56470;47.350;8.718;2023-09-19T00:32:13;18.96;74.69
69324;DHT22;56470;47.350;8.718;2023-09-19T00:34:38;19.02;74.54
69324;DHT22;56470;47.350;8.718;2023-09-19T00:37:03;19.09;74.30
69324;DHT22;56470;47.350;8.718;2023-09-19T00:39:29;19.13;74.06
69324;DHT22;56470;47.350;8.718;2023-09-19T00:41:56;19.16;73.98
69324;DHT22;56470;47.350;8.718;2023-09-19T00:44:22;19.19;73.90
69324;DHT22;56470;47.350;8.718;2023-09-19T00:46:48;19.22;73.72
69324;DHT22;56470;47.350;8.718;2023-09-19T00:49:15;19.23;73.71
69324;DHT22;56470;47.350;8.718;2023-09-19T00:51:41;19.23;73.66
69324;DHT22;56470;47.350;8.718;2023-09-19T00:54:10;19.24;73.75
69324;DHT22;56470;47.350;8.718;2023-09-19T00:56:38;19.31;73.80
69324;DHT22;56470;47.350;8.718;2023-09-19T00:59:05;19.39;73.70
69324;DHT22;56470;47.350;8.718;2023-09-19T01:01:31;19.43;73.51
69324;DHT22;56470;47.350;8.718;2023-09-19T01:03:56;19.47;73.41
69324;DHT22;56470;47.350;8.718;2023-09-19T01:06:22;19.54;73.30
69324;DHT22;56470;47.350;8.718;2023-09-19T01:08:47;19.57;73.21
69324;DHT22;56470;47.350;8.718;2023-09-19T01:11:21;19.57;73.01
69324;DHT22;56470;47.350;8.718;2023-09-19T01:14:04;19.54;73.27
69324;DHT22;56470;47.350;8.718;2023-09-19T01:17:18;19.50;73.49
69324;DHT22;56470;47.350;8.718;2023-09-19T01:20:11;19.49;74.10
69324;DHT22;56470;47.350;8.718;2023-09-19T01:28:07;19.26;74.12
69324;DHT22;56470;47.350;8.718;2023-09-19T01:30:40;19.22;73.95
69324;DHT22;56470;47.350;8.718;2023-09-19T01:33:09;19.23;74.02
69324;DHT22;56470;47.350;8.718;2023-09-19T01:35:38;19.24;74.10
69324;DHT22;56470;47.350;8.718;2023-09-19T01:38:05;19.23;74.20
69324;DHT22;56470;47.350;8.718;2023-09-19T01:40:31;19.24;74.12
69324;DHT22;56470;47.350;8.718;2023-09-19T01:43:12;19.26;74.31
69324;DHT22;56470;47.350;8.718;2023-09-19T01:45:52;19.27;74.23
69324;DHT22;56470;47.350;8.718;2023-09-19T01:51:14;19.29;73.58
69324;DHT22;56470;47.350;8.718;2023-09-19T01:53:55;19.30;73.25
69324;DHT22;56470;47.350;8.718;2023-09-19T01:56:30;19.31;72.65
69324;DHT22;56470;47.350;8.718;2023-09-19T01:58:59;19.34;72.57
69324;DHT22;56470;47.350;8.718;2023-09-19T02:01:27;19.36;72.22
69324;DHT22;56470;47.350;8.718;2023-09-19T02:03:53;19.39;72.04
69324;DHT22;56470;47.350;8.718;2023-09-19T02:06:19;19.40;71.85
69324;DHT22;56470;47.350;8.718;2023-09-19T02:08:46;19.43;71.71
69324;DHT22;56470;47.350;8.718;2023-09-19T02:11:12;19.49;71.48
69324;DHT22;56470;47.350;8.718;2023-09-19T02:13:38;19.50;71.34
69324;DHT22;56470;47.350;8.718;2023-09-19T02:16:03;19.53;71.13
69324;DHT22;56470;47.350;8.718;2023-09-19T02:18:34;19.56;71.07
69324;DHT22;56470;47.350;8.718;2023-09-19T02:21:03;19.58;71.02
69324;DHT22;56470;47.350;8.718;2023-09-19T02:23:30;19.58;70.74
69324;DHT22;56470;47.350;8.718;2023-09-19T02:25:59;19.57;70.51
69324;DHT22;56470;47.350;8.718;2023-09-19T02:28:29;19.57;70.33
69324;DHT22;56470;47.350;8.718;2023-09-19T02:31:01;19.56;70.15
69324;DHT22;56470;47.350;8.718;2023-09-19T02:33:26;19.49;69.85
69324;DHT22;56470;47.350;8.718;2023-09-19T02:35:55;19.51;69.94
69324;DHT22;56470;47.350;8.718;2023-09-19T02:38:24;19.50;69.97
69324;DHT22;56470;47.350;8.718;2023-09-19T02:40:51;19.46;69.88
69324;DHT22;56470;47.350;8.718;2023-09-19T02:43:16;19.40;69.93
69324;DHT22;56470;47.350;8.718;2023-09-19T02:45:42;19.43;69.96
69324;DHT22;56470;47.350;8.718;2023-09-19T02:48:07;19.47;69.90
69324;DHT22;56470;47.350;8.718;2023-09-19T02:50:33;19.47;69.86
69324;DHT22;56470;47.350;8.718;2023-09-19T02:52:59;19.50;69.78
69324;DHT22;56470;47.350;8.718;2023-09-19T02:55:24;19.46;69.47
69324;DHT22;56470;47.350;8.718;2023-09-19T02:57:52;19.45;69.66
69324;DHT22;56470;47.350;8.718;2023-09-19T03:00:18;19.45;69.55
69324;DHT22;56470;47.350;8.718;2023-09-19T03:02:46;19.40;69.45
69324;DHT22;56470;47.350;8.718;2023-09-19T03:05:12;19.33;69.42
69324;DHT22;56470;47.350;8.718;2023-09-19T03:07:37;19.30;69.49
69324;DHT22;56470;47.350;8.718;2023-09-19T03:10:05;19.19;69.57
69324;DHT22;56470;47.350;8.718;2023-09-19T03:12:30;19.16;69.67
69324;DHT22;56470;47.350;8.718;2023-09-19T03:14:57;19.11;69.74
69324;DHT22;56470;47.350;8.718;2023-09-19T03:17:22;19.01;69.82
69324;DHT22;56470;47.350;8.718;2023-09-19T03:19:47;19.01;70.03
69324;DHT22;56470;47.350;8.718;2023-09-19T03:22:14;19.02;70.09
69324;DHT22;56470;47.350;8.718;2023-09-19T03:24:39;19.03;69.97
69324;DHT22;56470;47.350;8.718;2023-09-19T03:27:05;19.01;70.19
69324;DHT22;56470;47.350;8.718;2023-09-19T03:29:30;19.02;70.33
69324;DHT22;56470;47.350;8.718;2023-09-19T03:31:55;19.03;70.44
69324;DHT22;56470;47.350;8.718;2023-09-19T03:34:21;19.12;70.41
69324;DHT22;56470;47.350;8.718;2023-09-19T03:36:46;19.19;70.40
69324;DHT22;56470;47.350;8.718;2023-09-19T03:39:12;19.24;70.24
69324;DHT22;56470;47.350;8.718;2023-09-19T03:41:37;19.26;70.03
69324;DHT22;56470;47.350;8.718;2023-09-19T03:44:03;19.26;69.89
69324;DHT22;56470;47.350;8.718;2023-09-19T03:46:28;19.27;70.02
69324;DHT22;56470;47.350;8.718;2023-09-19T03:48:54;19.30;69.99
69324;DHT22;56470;47.350;8.718;2023-09-19T03:51:20;19.30;69.99
69324;DHT22;56470;47.350;8.718;2023-09-19T03:53:45;19.34;70.03
69324;DHT22;56470;47.350;8.718;2023-09-19T03:56:11;19.29;70.03
69324;DHT22;56470;47.350;8.718;2023-09-19T03:58:36;19.30;70.10
69324;DHT22;56470;47.350;8.718;2023-09-19T04:01:05;19.20;70.31
69324;DHT22;56470;47.350;8.718;2023-09-19T04:03:32;19.16;70.53
69324;DHT22;56470;47.350;8.718;2023-09-19T04:06:11;19.01;70.73
69324;DHT22;56470;47.350;8.718;2023-09-19T04:08:37;18.96;71.13
69324;DHT22;56470;47.350;8.718;2023-09-19T04:11:02;18.84;71.65
69324;DHT22;56470;47.350;8.718;2023-09-19T04:13:27;18.68;72.13
69324;DHT22;56470;47.350;8.718;2023-09-19T04:15:53;18.47;72.70
69324;DHT22;56470;47.350;8.718;2023-09-19T04:18:18;18.39;73.10
69324;DHT22;56470;47.350;8.718;2023-09-19T04:20:53;18.33;73.16
69324;DHT22;56470;47.350;8.718;2023-09-19T04:23:33;18.26;74.02
69324;DHT22;56470;47.350;8.718;2023-09-19T04:25:58;18.21;73.38
69324;DHT22;56470;47.350;8.718;2023-09-19T04:28:24;18.22;73.44
69324;DHT22;56470;47.350;8.718;2023-09-19T04:30:50;18.23;73.47
69324;DHT22;56470;47.350;8.718;2023-09-19T04:33:15;18.30;73.27
69324;DHT22;56470;47.350;8.718;2023-09-19T04:35:43;18.37;73.23
69324;DHT22;56470;47.350;8.718;2023-09-19T04:38:11;18.44;73.03
69324;DHT22;56470;47.350;8.718;2023-09-19T04:40:37;18.53;72.98
69324;DHT22;56470;47.350;8.718;2023-09-19T04:43:04;18.61;72.95
69324;DHT22;56470;47.350;8.718;2023-09-19T04:45:31;18.67;72.84
69324;DHT22;56470;47.350;8.718;2023-09-19T04:47:56;18.72;72.78
69324;DHT22;56470;47.350;8.718;2023-09-19T04:50:22;18.77;72.70
69324;DHT22;56470;47.350;8.718;2023-09-19T04:52:50;18.79;72.67
69324;DHT22;56470;47.350;8.718;2023-09-19T04:55:17;18.83;72.61
69324;DHT22;56470;47.350;8.718;2023-09-19T04:57:46;18.85;72.60
69324;DHT22;56470;47.350;8.718;2023-09-19T05:00:23;18.77;72.91
69324;DHT22;56470;47.350;8.718;2023-09-19T05:02:56;18.68;72.81
69324;DHT22;56470;47.350;8.718;2023-09-19T05:05:26;18.60;73.06
69324;DHT22;56470;47.350;8.718;2023-09-19T05:08:02;18.54;73.29
69324;DHT22;56470;47.350;8.718;2023-09-19T05:10:32;18.53;73.42
69324;DHT22;56470;47.350;8.718;2023-09-19T05:12:58;18.56;73.56
69324;DHT22;56470;47.350;8.718;2023-09-19T05:15:23;18.58;73.61
69324;DHT22;56470;47.350;8.718;2023-09-19T05:17:50;18.67;73.50
69324;DHT22;56470;47.350;8.718;2023-09-19T05:20:16;18.74;73.48
69324;DHT22;56470;47.350;8.718;2023-09-19T05:22:42;18.78;73.36
69324;DHT22;56470;47.350;8.718;2023-09-19T05:25:09;18.85;73.29
69324;DHT22;56470;47.350;8.718;2023-09-19T05:27:35;18.92;73.29
69324;DHT22;56470;47.350;8.718;2023-09-19T05:30:00;18.96;73.14
69324;DHT22;56470;47.350;8.718;2023-09-19T05:32:26;18.99;73.17
69324;DHT22;56470;47.350;8.718;2023-09-19T05:34:51;19.01;73.24
69324;DHT22;56470;47.350;8.718;2023-09-19T05:37:21;19.02;73.35
69324;DHT22;56470;47.350;8.718;2023-09-19T05:39:48;19.01;73.37
69324;DHT22;56470;47.350;8.718;2023-09-19T05:42:14;19.01;73.15
69324;DHT22;56470;47.350;8.718;2023-09-19T05:44:39;18.95;73.16
69324;DHT22;56470;47.350;8.718;2023-09-19T05:47:04;18.95;73.34
69324;DHT22;56470;47.350;8.718;2023-09-19T05:49:30;18.95;73.54
69324;DHT22;56470;47.350;8.718;2023-09-19T05:51:55;18.92;73.58
69324;DHT22;56470;47.350;8.718;2023-09-19T05:54:21;18.89;73.54
69324;DHT22;56470;47.350;8.718;2023-09-19T05:56:47;18.87;73.53
69324;DHT22;56470;47.350;8.718;2023-09-19T05:59:13;18.84;73.55
69324;DHT22;56470;47.350;8.718;2023-09-19T06:01:42;18.85;73.52
69324;DHT22;56470;47.350;8.718;2023-09-19T06:04:07;18.85;73.50
69324;DHT22;56470;47.350;8.718;2023-09-19T06:06:32;18.84;73.52
69324;DHT22;56470;47.350;8.718;2023-09-19T06:09:04;18.77;73.55
69324;DHT22;56470;47.350;8.718;2023-09-19T06:11:31;18.69;73.71
69324;DHT22;56470;47.350;8.718;2023-09-19T06:13:59;18.64;73.86
69324;DHT22;56470;47.350;8.718;2023-09-19T06:16:25;18.63;74.00
69324;DHT22;56470;47.350;8.718;2023-09-19T06:18:51;18.61;74.23
69324;DHT22;56470;47.350;8.718;2023-09-19T06:21:18;18.63;74.21
69324;DHT22;56470;47.350;8.718;2023-09-19T06:23:43;18.64;74.25
69324;DHT22;56470;47.350;8.718;2023-09-19T06:26:08;18.64;74.20
69324;DHT22;56470;47.350;8.718;2023-09-19T06:28:34;18.63;74.25
69324;DHT22;56470;47.350;8.718;2023-09-19T06:31:02;18.57;74.42
69324;DHT22;56470;47.350;8.718;2023-09-19T06:33:27;18.51;74.42
69324;DHT22;56470;47.350;8.718;2023-09-19T06:35:53;18.44;74.53
69324;DHT22;56470;47.350;8.718;2023-09-19T06:38:24;18.32;74.73
69324;DHT22;56470;47.350;8.718;2023-09-19T06:40:49;18.25;74.87
69324;DHT22;56470;47.350;8.718;2023-09-19T06:43:15;18.17;75.17
69324;DHT22;56470;47.350;8.718;2023-09-19T06:45:40;18.12;75.02
69324;DHT22;56470;47.350;8.718;2023-09-19T06:48:05;18.06;75.05
69324;DHT22;56470;47.350;8.718;2023-09-19T06:50:32;18.06;74.98
69324;DHT22;56470;47.350;8.718;2023-09-19T06:52:59;18.08;75.26
69324;DHT22;56470;47.350;8.718;2023-09-19T06:55:25;18.09;75.38
69324;DHT22;56470;47.350;8.718;2023-09-19T06:57:53;18.08;75.24
69324;DHT22;56470;47.350;8.718;2023-09-19T07:00:21;18.15;75.38
69324;DHT22;56470;47.350;8.718;2023-09-19T07:03:03;18.10;75.61
69324;DHT22;56470;47.350;8.718;2023-09-19T07:05:30;18.16;75.29
69324;DHT22;56470;47.350;8.718;2023-09-19T07:07:57;18.16;75.37
69324;DHT22;56470;47.350;8.718;2023-09-19T07:10:29;18.13;75.60
69324;DHT22;56470;47.350;8.718;2023-09-19T07:13:05;18.08;75.94
69324;DHT22;56470;47.350;8.718;2023-09-19T07:15:34;18.05;75.94
69324;DHT22;56470;47.350;8.718;2023-09-19T07:18:01;18.04;75.90
69324;DHT22;56470;47.350;8.718;2023-09-19T07:20:27;17.98;76.26
69324;DHT22;56470;47.350;8.718;2023-09-19T07:22:54;17.94;76.42
69324;DHT22;56470;47.350;8.718;2023-09-19T07:25:21;17.92;76.58
69324;DHT22;56470;47.350;8.718;2023-09-19T07:27:46;17.95;76.57
69324;DHT22;56470;47.350;8.718;2023-09-19T07:30:12;17.99;76.73
69324;DHT22;56470;47.350;8.718;2023-09-19T07:32:38;18.02;76.92
69324;DHT22;56470;47.350;8.718;2023-09-19T07:35:04;18.08;76.73
69324;DHT22;56470;47.350;8.718;2023-09-19T07:37:33;18.06;76.94
69324;DHT22;56470;47.350;8.718;2023-09-19T07:40:00;18.04;76.86
69324;DHT22;56470;47.350;8.718;2023-09-19T07:42:26;18.04;77.15
69324;DHT22;56470;47.350;8.718;2023-09-19T07:44:52;18.09;76.83
69324;DHT22;56470;47.350;8.718;2023-09-19T07:47:21;18.06;77.05
69324;DHT22;56470;47.350;8.718;2023-09-19T07:49:47;18.08;76.98
69324;DHT22;56470;47.350;8.718;2023-09-19T07:52:13;18.10;77.05
69324;DHT22;56470;47.350;8.718;2023-09-19T07:54:38;18.22;76.97
69324;DHT22;56470;47.350;8.718;2023-09-19T07:57:08;18.28;76.74
69324;DHT22;56470;47.350;8.718;2023-09-19T07:59:33;18.30;76.58
69324;DHT22;56470;47.350;8.718;2023-09-19T08:01:59;18.29;76.60
69324;DHT22;56470;47.350;8.718;2023-09-19T08:04:25;18.21;76.58
69324;DHT22;56470;47.350;8.718;2023-09-19T08:06:51;18.08;77.02
69324;DHT22;56470;47.350;8.718;2023-09-19T08:09:17;18.05;77.21
69324;DHT22;56470;47.350;8.718;2023-09-19T08:11:46;17.99;77.51
69324;DHT22;56470;47.350;8.718;2023-09-19T08:14:11;17.99;77.49
69324;DHT22;56470;47.350;8.718;2023-09-19T08:16:39;18.04;77.33
69324;DHT22;56470;47.350;8.718;2023-09-19T08:19:04;18.08;77.39
69324;DHT22;56470;47.350;8.718;2023-09-19T08:21:31;18.15;77.27
69324;DHT22;56470;47.350;8.718;2023-09-19T08:23:57;18.22;77.20
69324;DHT22;56470;47.350;8.718;2023-09-19T08:26:22;18.30;77.20
69324;DHT22;56470;47.350;8.718;2023-09-19T08:28:49;18.40;76.98
69324;DHT22;56470;47.350;8.718;2023-09-19T08:31:16;18.54;76.70
69324;DHT22;56470;47.350;8.718;2023-09-19T08:33:43;18.65;76.37
69324;DHT22;56470;47.350;8.718;2023-09-19T08:36:10;18.69;76.03
69324;DHT22;56470;47.350;8.718;2023-09-19T08:38:39;18.81;75.94
69324;DHT22;56470;47.350;8.718;2023-09-19T08:41:08;18.88;75.53
69324;DHT22;56470;47.350;8.718;2023-09-19T08:43:34;18.92;75.25
69324;DHT22;56470;47.350;8.718;2023-09-19T08:48:31;19.08;74.75
69324;DHT22;56470;47.350;8.718;2023-09-19T08:51:06;19.12;74.24
69324;DHT22;56470;47.350;8.718;2023-09-19T08:53:51;19.16;73.68
69324;DHT22;56470;47.350;8.718;2023-09-19T08:56:18;19.22;74.08
69324;DHT22;56470;47.350;8.718;2023-09-19T08:58:48;19.24;73.78
69324;DHT22;56470;47.350;8.718;2023-09-19T09:01:16;19.24;73.20
69324;DHT22;56470;47.350;8.718;2023-09-19T09:03:48;19.19;73.10
69324;DHT22;56470;47.350;8.718;2023-09-19T09:06:14;19.16;73.07
69324;DHT22;56470;47.350;8.718;2023-09-19T09:08:41;19.13;72.72
69324;DHT22;56470;47.350;8.718;2023-09-19T09:11:07;19.12;72.79
69324;DHT22;56470;47.350;8.718;2023-09-19T09:13:35;19.18;72.77
69324;DHT22;56470;47.350;8.718;2023-09-19T09:16:01;19.23;72.58
69324;DHT22;56470;47.350;8.718;2023-09-19T09:18:28;19.29;72.44
69324;DHT22;56470;47.350;8.718;2023-09-19T09:20:54;19.30;72.27
69324;DHT22;56470;47.350;8.718;2023-09-19T09:23:21;19.29;72.05
69324;DHT22;56470;47.350;8.718;2023-09-19T09:25:47;19.27;72.14
69324;DHT22;56470;47.350;8.718;2023-09-19T09:28:19;19.24;72.07
69324;DHT22;56470;47.350;8.718;2023-09-19T09:30:46;19.26;72.03
69324;DHT22;56470;47.350;8.718;2023-09-19T09:33:13;19.23;71.89
69324;DHT22;56470;47.350;8.718;2023-09-19T09:35:58;19.19;71.90
69324;DHT22;56470;47.350;8.718;2023-09-19T09:38:29;19.27;72.26
69324;DHT22;56470;47.350;8.718;2023-09-19T09:40:59;19.33;71.97
69324;DHT22;56470;47.350;8.718;2023-09-19T09:46:19;19.31;71.91
69324;DHT22;56470;47.350;8.718;2023-09-19T09:51:38;19.40;71.76
69324;DHT22;56470;47.350;8.718;2023-09-19T09:54:16;19.40;71.69
69324;DHT22;56470;47.350;8.718;2023-09-19T09:56:55;19.46;71.23
69324;DHT22;56470;47.350;8.718;2023-09-19T09:59:44;19.54;71.15
69324;DHT22;56470;47.350;8.718;2023-09-19T10:02:15;19.61;71.47
69324;DHT22;56470;47.350;8.718;2023-09-19T10:04:48;19.71;71.19
69324;DHT22;56470;47.350;8.718;2023-09-19T10:07:31;19.74;70.81
69324;DHT22;56470;47.350;8.718;2023-09-19T10:10:04;19.73;70.59
69324;DHT22;56470;47.350;8.718;2023-09-19T10:12:42;19.78;70.75
69324;DHT22;56470;47.350;8.718;2023-09-19T10:15:11;19.78;70.45
69324;DHT22;56470;47.350;8.718;2023-09-19T10:17:36;19.73;70.23
69324;DHT22;56470;47.350;8.718;2023-09-19T10:20:04;19.60;70.24
69324;DHT22;56470;47.350;8.718;2023-09-19T10:22:43;19.50;70.37
69324;DHT22;56470;47.350;8.718;2023-09-19T10:25:08;19.51;70.39
69324;DHT22;56470;47.350;8.718;2023-09-19T10:27:35;19.40;70.24
69324;DHT22;56470;47.350;8.718;2023-09-19T10:30:05;19.40;70.50
69324;DHT22;56470;47.350;8.718;2023-09-19T10:32:32;19.46;70.55
69324;DHT22;56470;47.350;8.718;2023-09-19T10:34:59;19.51;70.61
69324;DHT22;56470;47.350;8.718;2023-09-19T10:37:27;19.47;70.10
69324;DHT22;56470;47.350;8.718;2023-09-19T10:39:54;19.33;70.14
69324;DHT22;56470;47.350;8.718;2023-09-19T10:42:23;19.40;70.44
69324;DHT22;56470;47.350;8.718;2023-09-19T10:44:52;19.43;70.27
69324;DHT22;56470;47.350;8.718;2023-09-19T10:47:20;19.37;70.26
69324;DHT22;56470;47.350;8.718;2023-09-19T10:49:49;19.30;70.23
69324;DHT22;56470;47.350;8.718;2023-09-19T10:52:18;19.31;70.39
69324;DHT22;56470;47.350;8.718;2023-09-19T10:54:51;19.33;70.59
69324;DHT22;56470;47.350;8.718;2023-09-19T10:57:22;19.39;70.57
69324;DHT22;56470;47.350;8.718;2023-09-19T11:00:06;19.43;70.88
69324;DHT22;56470;47.350;8.718;2023-09-19T11:05:39;19.41;71.01
69324;DHT22;56470;47.350;8.718;2023-09-19T11:08:07;19.45;71.29
69324;DHT22;56470;47.350;8.718;2023-09-19T11:10:49;19.50;72.09
69324;DHT22;56470;47.350;8.718;2023-09-19T11:13:29;19.51;71.86
69324;DHT22;56470;47.350;8.718;2023-09-19T11:16:03;19.56;71.83
69324;DHT22;56470;47.350;8.718;2023-09-19T11:24:28;19.64;71.67
69324;DHT22;56470;47.350;8.718;2023-09-19T11:27:12;19.67;71.72
69324;DHT22;56470;47.350;8.718;2023-09-19T11:29:39;19.71;71.55
69324;DHT22;56470;47.350;8.718;2023-09-19T11:32:06;19.81;71.47
69324;DHT22;56470;47.350;8.718;2023-09-19T11:34:45;19.94;71.36
69324;DHT22;56470;47.350;8.718;2023-09-19T11:39:40;20.16;70.79
69324;DHT22;56470;47.350;8.718;2023-09-19T11:42:41;20.28;70.17
69324;DHT22;56470;47.350;8.718;2023-09-19T11:45:07;20.43;70.22
69324;DHT22;56470;47.350;8.718;2023-09-19T11:47:33;20.47;69.41
69324;DHT22;56470;47.350;8.718;2023-09-19T11:50:00;20.48;69.56
69324;DHT22;56470;47.350;8.718;2023-09-19T11:52:28;20.57;69.77
69324;DHT22;56470;47.350;8.718;2023-09-19T11:54:59;20.81;69.40
69324;DHT22;56470;47.350;8.718;2023-09-19T11:57:27;20.94;69.25
69324;DHT22;56470;47.350;8.718;2023-09-19T11:59:57;21.02;69.03
69324;DHT22;56470;47.350;8.718;2023-09-19T12:02:39;21.02;68.69
69324;DHT22;56470;47.350;8.718;2023-09-19T12:05:06;21.05;68.89
69324;DHT22;56470;47.350;8.718;2023-09-19T12:07:42;21.10;67.89
69324;DHT22;56470;47.350;8.718;2023-09-19T12:10:08;21.13;68.39
69324;DHT22;56470;47.350;8.718;2023-09-19T12:12:36;21.12;68.33
69324;DHT22;56470;47.350;8.718;2023-09-19T12:15:02;21.13;67.82
69324;DHT22;56470;47.350;8.718;2023-09-19T12:17:36;21.08;66.68
69324;DHT22;56470;47.350;8.718;2023-09-19T12:20:02;21.09;66.54
69324;DHT22;56470;47.350;8.718;2023-09-19T12:22:43;21.06;66.28
69324;DHT22;56470;47.350;8.718;2023-09-19T12:25:10;21.12;66.75
69324;DHT22;56470;47.350;8.718;2023-09-19T12:27:47;21.16;64.93
69324;DHT22;56470;47.350;8.718;2023-09-19T12:30:13;21.18;66.15
69324;DHT22;56470;47.350;8.718;2023-09-19T12:32:40;21.22;65.82
69324;DHT22;56470;47.350;8.718;2023-09-19T12:35:09;21.29;64.95
69324;DHT22;56470;47.350;8.718;2023-09-19T12:37:37;21.29;64.56
69324;DHT22;56470;47.350;8.718;2023-09-19T12:40:09;21.26;64.46
69324;DHT22;56470;47.350;8.718;2023-09-19T12:42:46;21.30;64.70
69324;DHT22;56470;47.350;8.718;2023-09-19T12:45:13;21.32;64.61
69324;DHT22;56470;47.350;8.718;2023-09-19T12:47:40;21.37;64.39
69324;DHT22;56470;47.350;8.718;2023-09-19T12:50:25;21.40;64.01
69324;DHT22;56470;47.350;8.718;2023-09-19T12:52:55;21.46;64.15
69324;DHT22;56470;47.350;8.718;2023-09-19T12:58:13;21.49;61.41
69324;DHT22;56470;47.350;8.718;2023-09-19T13:00:44;21.58;62.96
69324;DHT22;56470;47.350;8.718;2023-09-19T13:05:48;21.61;62.19
69324;DHT22;56470;47.350;8.718;2023-09-19T13:08:27;21.61;61.96
69324;DHT22;56470;47.350;8.718;2023-09-19T13:13:36;21.68;62.92
69324;DHT22;56470;47.350;8.718;2023-09-19T13:16:02;21.71;62.75
69324;DHT22;56470;47.350;8.718;2023-09-19T13:18:29;21.68;62.67
69324;DHT22;56470;47.350;8.718;2023-09-19T13:21:11;21.67;61.09
69324;DHT22;56470;47.350;8.718;2023-09-19T13:23:54;21.67;62.59
69324;DHT22;56470;47.350;8.718;2023-09-19T13:26:27;21.67;62.55
69324;DHT22;56470;47.350;8.718;2023-09-19T13:28:54;21.70;62.75
69324;DHT22;56470;47.350;8.718;2023-09-19T13:31:19;21.73;62.54
69324;DHT22;56470;47.350;8.718;2023-09-19T13:33:45;21.75;62.46
69324;DHT22;56470;47.350;8.718;2023-09-19T13:36:11;21.77;62.07
69324;DHT22;56470;47.350;8.718;2023-09-19T13:38:39;21.68;62.31
69324;DHT22;56470;47.350;8.718;2023-09-19T13:41:05;21.68;62.33
69324;DHT22;56470;47.350;8.718;2023-09-19T13:43:31;21.75;62.22
69324;DHT22;56470;47.350;8.718;2023-09-19T13:45:56;21.77;62.12
69324;DHT22;56470;47.350;8.718;2023-09-19T13:48:22;21.80;61.90
69324;DHT22;56470;47.350;8.718;2023-09-19T13:50:48;21.85;61.85
69324;DHT22;56470;47.350;8.718;2023-09-19T13:53:14;21.85;61.32
69324;DHT22;56470;47.350;8.718;2023-09-19T13:55:39;21.89;61.09
69324;DHT22;56470;47.350;8.718;2023-09-19T13:58:05;21.95;60.80
69324;DHT22;56470;47.350;8.718;2023-09-19T14:00:32;21.98;60.67
69324;DHT22;56470;47.350;8.718;2023-09-19T14:03:00;22.05;60.64
69324;DHT22;56470;47.350;8.718;2023-09-19T14:05:26;22.08;60.69
69324;DHT22;56470;47.350;8.718;2023-09-19T14:07:52;22.09;60.62
69324;DHT22;56470;47.350;8.718;2023-09-19T14:10:17;22.10;60.54
69324;DHT22;56470;47.350;8.718;2023-09-19T14:12:45;22.12;60.46
69324;DHT22;56470;47.350;8.718;2023-09-19T14:15:10;22.08;60.18
69324;DHT22;56470;47.350;8.718;2023-09-19T14:17:37;22.08;60.18
69324;DHT22;56470;47.350;8.718;2023-09-19T14:20:02;22.06;60.35
69324;DHT22;56470;47.350;8.718;2023-09-19T14:22:28;22.10;59.59
69324;DHT22;56470;47.350;8.718;2023-09-19T14:24:53;22.13;59.62
69324;DHT22;56470;47.350;8.718;2023-09-19T14:27:18;22.12;59.40
69324;DHT22;56470;47.350;8.718;2023-09-19T14:29:44;22.17;59.31
69324;DHT22;56470;47.350;8.718;2023-09-19T14:32:09;22.22;59.31
69324;DHT22;56470;47.350;8.718;2023-09-19T14:34:35;22.19;59.31
69324;DHT22;56470;47.350;8.718;2023-09-19T14:37:07;22.16;59.19
69324;DHT22;56470;47.350;8.718;2023-09-19T14:39:32;22.15;59.56
69324;DHT22;56470;47.350;8.718;2023-09-19T14:41:57;22.16;59.91
69324;DHT22;56470;47.350;8.718;2023-09-19T14:44:22;22.16;59.89
69324;DHT22;56470;47.350;8.718;2023-09-19T14:46:48;22.15;59.56
69324;DHT22;56470;47.350;8.718;2023-09-19T14:49:13;22.10;59.30
69324;DHT22;56470;47.350;8.718;2023-09-19T14:51:42;22.05;59.58
69324;DHT22;56470;47.350;8.718;2023-09-19T14:54:09;22.04;59.71
69324;DHT22;56470;47.350;8.718;2023-09-19T14:56:34;22.06;59.79
69324;DHT22;56470;47.350;8.718;2023-09-19T14:59:00;22.02;59.56
69324;DHT22;56470;47.350;8.718;2023-09-19T15:01:25;22.02;59.63
69324;DHT22;56470;47.350;8.718;2023-09-19T15:03:50;22.01;59.58
69324;DHT22;56470;47.350;8.718;2023-09-19T15:06:16;21.99;59.45
69324;DHT22;56470;47.350;8.718;2023-09-19T15:08:44;21.95;59.58
69324;DHT22;56470;47.350;8.718;2023-09-19T15:11:16;21.97;59.88
69324;DHT22;56470;47.350;8.718;2023-09-19T15:13:43;22.01;59.82
69324;DHT22;56470;47.350;8.718;2023-09-19T15:16:09;22.04;59.83
69324;DHT22;56470;47.350;8.718;2023-09-19T15:18:38;22.08;59.96
69324;DHT22;56470;47.350;8.718;2023-09-19T15:21:04;22.10;59.72
69324;DHT22;56470;47.350;8.718;2023-09-19T15:23:31;22.06;59.62
69324;DHT22;56470;47.350;8.718;2023-09-19T15:25:57;22.06;59.52
69324;DHT22;56470;47.350;8.718;2023-09-19T15:28:23;22.10;59.54
69324;DHT22;56470;47.350;8.718;2023-09-19T15:30:57;22.12;58.78
69324;DHT22;56470;47.350;8.718;2023-09-19T15:33:23;22.15;59.36
69324;DHT22;56470;47.350;8.718;2023-09-19T15:35:48;22.16;59.24
69324;DHT22;56470;47.350;8.718;2023-09-19T15:38:13;22.17;59.09
69324;DHT22;56470;47.350;8.718;2023-09-19T15:40:46;22.17;57.87
69324;DHT22;56470;47.350;8.718;2023-09-19T15:43:11;22.20;58.77
69324;DHT22;56470;47.350;8.718;2023-09-19T15:45:37;22.22;58.48
69324;DHT22;56470;47.350;8.718;2023-09-19T15:48:02;22.22;58.57
69324;DHT22;56470;47.350;8.718;2023-09-19T15:50:30;22.25;58.72
69324;DHT22;56470;47.350;8.718;2023-09-19T15:52:55;22.23;58.83
69324;DHT22;56470;47.350;8.718;2023-09-19T15:55:21;22.23;58.74
69324;DHT22;56470;47.350;8.718;2023-09-19T15:57:46;22.22;58.43
69324;DHT22;56470;47.350;8.718;2023-09-19T16:00:12;22.25;58.03
69324;DHT22;56470;47.350;8.718;2023-09-19T16:02:42;22.25;57.68
69324;DHT22;56470;47.350;8.718;2023-09-19T16:05:07;22.25;57.61
69324;DHT22;56470;47.350;8.718;2023-09-19T16:07:32;22.23;57.47
69324;DHT22;56470;47.350;8.718;2023-09-19T16:09:59;22.23;57.37
69324;DHT22;56470;47.350;8.718;2023-09-19T16:12:25;22.22;57.25